sensor_id;sensor_type;location;lat;lon;timestamp;P1;durP1;ratioP1;P2;durP2;ratioP2
8177;SDS011;4130;48.740;9.132;2022-07-29T00:00:00;3.80;;;3.38;;
8177;SDS011;4130;48.740;9.132;2022-07-29T00:02:27;4.38;;;3.40;;
8177;SDS011;4130;48.740;9.132;2022-07-29T00:04:54;3.53;;;3.22;;
8177;SDS011;4130;48.740;9.132;2022-07-29T00:07:21;3.50;;;3.20;;
8177;SDS011;4130;48.740;9.132;2022-07-29T00:09:48;4.03;;;3.63;;
8177;SDS011;4130;48.740;9.132;2022-07-29T00:12:16;3.35;;;3.05;;
8177;SDS011;4130;48.740;9.132;2022-07-29T00:17:57;3.78;;;3.47;;
8177;SDS011;4130;48.740;9.132;2022-07-29T00:20:24;4.28;;;3.88;;
8177;SDS011;4130;48.740;9.132;2022-07-29T00:22:51;3.40;;;3.10;;
8177;SDS011;4130;48.740;9.132;2022-07-29T00:25:18;3.45;;;3.15;;
8177;SDS011;4130;48.740;9.132;2022-07-29T00:27:46;4.00;;;3.53;;
8177;SDS011;4130;48.740;9.132;2022-07-29T00:30:13;3.67;;;3.35;;
8177;SDS011;4130;48.740;9.132;2022-07-29T00:32:40;3.20;;;3.00;;
8177;SDS011;4130;48.740;9.132;2022-07-29T00:35:07;4.45;;;3.28;;
8177;SDS011;4130;48.740;9.132;2022-07-29T00:37:52;3.40;;;3.10;;
8177;SDS011;4130;48.740;9.132;2022-07-29T00:40:19;4.90;;;3.47;;
8177;SDS011;4130;48.740;9.132;2022-07-29T00:42:47;3.08;;;2.88;;
8177;SDS011;4130;48.740;9.132;2022-07-29T00:45:16;3.45;;;3.15;;
8177;SDS011;4130;48.740;9.132;2022-07-29T00:47:43;3.55;;;3.25;;
8177;SDS011;4130;48.740;9.132;2022-07-29T00:50:11;3.60;;;3.30;;
8177;SDS011;4130;48.740;9.132;2022-07-29T00:52:39;3.08;;;2.78;;
8177;SDS011;4130;48.740;9.132;2022-07-29T00:55:08;3.50;;;2.90;;
8177;SDS011;4130;48.740;9.132;2022-07-29T00:57:37;3.17;;;2.83;;
8177;SDS011;4130;48.740;9.132;2022-07-29T01:00:07;3.40;;;3.10;;
8177;SDS011;4130;48.740;9.132;2022-07-29T01:02:36;3.10;;;2.83;;
8177;SDS011;4130;48.740;9.132;2022-07-29T01:05:04;3.25;;;2.95;;
8177;SDS011;4130;48.740;9.132;2022-07-29T01:07:33;3.17;;;2.90;;
8177;SDS011;4130;48.740;9.132;2022-07-29T01:10:02;3.20;;;2.90;;
8177;SDS011;4130;48.740;9.132;2022-07-29T01:12:34;3.40;;;3.10;;
8177;SDS011;4130;48.740;9.132;2022-07-29T01:15:04;3.00;;;2.80;;
8177;SDS011;4130;48.740;9.132;2022-07-29T01:17:36;3.60;;;2.90;;
8177;SDS011;4130;48.740;9.132;2022-07-29T01:20:08;3.38;;;2.85;;
8177;SDS011;4130;48.740;9.132;2022-07-29T01:22:50;3.08;;;2.85;;
8177;SDS011;4130;48.740;9.132;2022-07-29T01:25:38;3.25;;;2.95;;
8177;SDS011;4130;48.740;9.132;2022-07-29T01:31:12;3.00;;;2.67;;
8177;SDS011;4130;48.740;9.132;2022-07-29T01:33:48;3.10;;;2.80;;
8177;SDS011;4130;48.740;9.132;2022-07-29T01:36:23;2.88;;;2.63;;
8177;SDS011;4130;48.740;9.132;2022-07-29T01:38:57;2.80;;;2.60;;
8177;SDS011;4130;48.740;9.132;2022-07-29T01:41:29;2.95;;;2.75;;
8177;SDS011;4130;48.740;9.132;2022-07-29T01:44:05;2.63;;;2.42;;
8177;SDS011;4130;48.740;9.132;2022-07-29T01:46:39;2.90;;;2.70;;
8177;SDS011;4130;48.740;9.132;2022-07-29T01:49:11;3.38;;;2.47;;
8177;SDS011;4130;48.740;9.132;2022-07-29T01:51:43;2.95;;;2.72;;
8177;SDS011;4130;48.740;9.132;2022-07-29T01:54:14;2.88;;;2.67;;
8177;SDS011;4130;48.740;9.132;2022-07-29T01:56:47;3.00;;;2.75;;
8177;SDS011;4130;48.740;9.132;2022-07-29T01:59:18;3.05;;;2.75;;
8177;SDS011;4130;48.740;9.132;2022-07-29T02:01:48;2.90;;;2.70;;
8177;SDS011;4130;48.740;9.132;2022-07-29T02:04:18;2.92;;;2.70;;
8177;SDS011;4130;48.740;9.132;2022-07-29T02:06:46;3.08;;;2.70;;
8177;SDS011;4130;48.740;9.132;2022-07-29T02:09:15;2.85;;;2.40;;
8177;SDS011;4130;48.740;9.132;2022-07-29T02:11:45;2.85;;;2.60;;
8177;SDS011;4130;48.740;9.132;2022-07-29T02:14:18;2.83;;;2.63;;
8177;SDS011;4130;48.740;9.132;2022-07-29T02:16:47;2.80;;;2.60;;
8177;SDS011;4130;48.740;9.132;2022-07-29T02:19:17;2.55;;;2.25;;
8177;SDS011;4130;48.740;9.132;2022-07-29T02:21:47;2.45;;;2.28;;
8177;SDS011;4130;48.740;9.132;2022-07-29T02:24:15;2.67;;;2.47;;
8177;SDS011;4130;48.740;9.132;2022-07-29T02:26:44;3.08;;;2.83;;
8177;SDS011;4130;48.740;9.132;2022-07-29T02:29:13;2.30;;;2.20;;
8177;SDS011;4130;48.740;9.132;2022-07-29T02:31:42;2.50;;;2.30;;
8177;SDS011;4130;48.740;9.132;2022-07-29T02:34:12;2.45;;;2.22;;
8177;SDS011;4130;48.740;9.132;2022-07-29T02:36:40;2.70;;;2.50;;
8177;SDS011;4130;48.740;9.132;2022-07-29T02:39:09;2.30;;;2.20;;
8177;SDS011;4130;48.740;9.132;2022-07-29T02:41:40;4.00;;;2.80;;
8177;SDS011;4130;48.740;9.132;2022-07-29T02:44:09;3.38;;;2.20;;
8177;SDS011;4130;48.740;9.132;2022-07-29T02:46:37;3.53;;;2.30;;
8177;SDS011;4130;48.740;9.132;2022-07-29T02:49:15;2.42;;;2.30;;
8177;SDS011;4130;48.740;9.132;2022-07-29T02:51:45;2.70;;;2.50;;
8177;SDS011;4130;48.740;9.132;2022-07-29T02:54:19;2.70;;;2.50;;
8177;SDS011;4130;48.740;9.132;2022-07-29T02:56:48;2.75;;;2.55;;
8177;SDS011;4130;48.740;9.132;2022-07-29T02:59:19;2.72;;;2.53;;
8177;SDS011;4130;48.740;9.132;2022-07-29T03:01:52;2.72;;;2.35;;
8177;SDS011;4130;48.740;9.132;2022-07-29T03:04:24;2.65;;;2.45;;
8177;SDS011;4130;48.740;9.132;2022-07-29T03:06:53;2.35;;;2.20;;
8177;SDS011;4130;48.740;9.132;2022-07-29T03:09:20;3.30;;;2.30;;
8177;SDS011;4130;48.740;9.132;2022-07-29T03:11:49;2.80;;;2.47;;
8177;SDS011;4130;48.740;9.132;2022-07-29T03:14:16;2.60;;;2.40;;
8177;SDS011;4130;48.740;9.132;2022-07-29T03:16:44;3.03;;;2.42;;
8177;SDS011;4130;48.740;9.132;2022-07-29T03:19:13;2.60;;;2.40;;
8177;SDS011;4130;48.740;9.132;2022-07-29T03:21:40;2.40;;;2.20;;
8177;SDS011;4130;48.740;9.132;2022-07-29T03:24:07;5.10;;;2.60;;
8177;SDS011;4130;48.740;9.132;2022-07-29T03:26:34;2.80;;;2.60;;
8177;SDS011;4130;48.740;9.132;2022-07-29T03:29:01;2.35;;;2.22;;
8177;SDS011;4130;48.740;9.132;2022-07-29T03:31:27;2.58;;;2.25;;
8177;SDS011;4130;48.740;9.132;2022-07-29T03:33:54;2.80;;;2.60;;
8177;SDS011;4130;48.740;9.132;2022-07-29T03:36:27;2.90;;;2.70;;
8177;SDS011;4130;48.740;9.132;2022-07-29T03:38:54;2.40;;;2.30;;
8177;SDS011;4130;48.740;9.132;2022-07-29T03:41:21;2.42;;;2.22;;
8177;SDS011;4130;48.740;9.132;2022-07-29T03:43:50;3.47;;;2.17;;
8177;SDS011;4130;48.740;9.132;2022-07-29T03:46:18;2.55;;;2.35;;
8177;SDS011;4130;48.740;9.132;2022-07-29T03:48:48;2.70;;;2.50;;
8177;SDS011;4130;48.740;9.132;2022-07-29T03:51:18;2.55;;;2.35;;
8177;SDS011;4130;48.740;9.132;2022-07-29T03:53:47;2.80;;;2.60;;
8177;SDS011;4130;48.740;9.132;2022-07-29T03:56:15;2.33;;;2.20;;
8177;SDS011;4130;48.740;9.132;2022-07-29T03:58:43;2.60;;;2.40;;
8177;SDS011;4130;48.740;9.132;2022-07-29T04:01:10;2.72;;;2.50;;
8177;SDS011;4130;48.740;9.132;2022-07-29T04:03:38;3.22;;;2.60;;
8177;SDS011;4130;48.740;9.132;2022-07-29T04:06:06;2.58;;;2.40;;
8177;SDS011;4130;48.740;9.132;2022-07-29T04:08:33;2.63;;;2.42;;
8177;SDS011;4130;48.740;9.132;2022-07-29T04:11:02;2.60;;;2.40;;
8177;SDS011;4130;48.740;9.132;2022-07-29T04:13:29;2.38;;;2.20;;
8177;SDS011;4130;48.740;9.132;2022-07-29T04:15:56;2.58;;;2.40;;
8177;SDS011;4130;48.740;9.132;2022-07-29T04:18:24;2.65;;;2.45;;
8177;SDS011;4130;48.740;9.132;2022-07-29T04:20:51;3.35;;;2.92;;
8177;SDS011;4130;48.740;9.132;2022-07-29T04:23:17;3.10;;;2.90;;
8177;SDS011;4130;48.740;9.132;2022-07-29T04:25:44;2.58;;;2.33;;
8177;SDS011;4130;48.740;9.132;2022-07-29T04:28:12;2.78;;;2.55;;
8177;SDS011;4130;48.740;9.132;2022-07-29T04:30:39;2.67;;;2.47;;
8177;SDS011;4130;48.740;9.132;2022-07-29T04:33:06;2.33;;;2.13;;
8177;SDS011;4130;48.740;9.132;2022-07-29T04:35:34;2.42;;;2.22;;
8177;SDS011;4130;48.740;9.132;2022-07-29T04:38:02;6.07;;;3.10;;
8177;SDS011;4130;48.740;9.132;2022-07-29T04:40:29;2.70;;;2.50;;
8177;SDS011;4130;48.740;9.132;2022-07-29T04:42:58;3.55;;;2.40;;
8177;SDS011;4130;48.740;9.132;2022-07-29T04:45:26;2.58;;;2.35;;
8177;SDS011;4130;48.740;9.132;2022-07-29T04:47:53;2.53;;;2.22;;
8177;SDS011;4130;48.740;9.132;2022-07-29T04:50:21;3.17;;;2.15;;
8177;SDS011;4130;48.740;9.132;2022-07-29T04:52:48;2.00;;;1.90;;
8177;SDS011;4130;48.740;9.132;2022-07-29T04:55:14;2.40;;;2.30;;
8177;SDS011;4130;48.740;9.132;2022-07-29T04:57:42;2.00;;;1.90;;
8177;SDS011;4130;48.740;9.132;2022-07-29T05:00:09;1.90;;;1.80;;
8177;SDS011;4130;48.740;9.132;2022-07-29T05:02:38;1.80;;;1.70;;
8177;SDS011;4130;48.740;9.132;2022-07-29T05:05:05;1.75;;;1.65;;
8177;SDS011;4130;48.740;9.132;2022-07-29T05:07:32;2.05;;;1.90;;
8177;SDS011;4130;48.740;9.132;2022-07-29T05:10:01;1.70;;;1.60;;
8177;SDS011;4130;48.740;9.132;2022-07-29T05:12:32;1.70;;;1.60;;
8177;SDS011;4130;48.740;9.132;2022-07-29T05:14:59;2.63;;;1.60;;
8177;SDS011;4130;48.740;9.132;2022-07-29T05:17:26;3.60;;;1.70;;
8177;SDS011;4130;48.740;9.132;2022-07-29T05:19:54;1.80;;;1.70;;
8177;SDS011;4130;48.740;9.132;2022-07-29T05:22:21;2.03;;;1.92;;
8177;SDS011;4130;48.740;9.132;2022-07-29T05:24:48;3.00;;;1.90;;
8177;SDS011;4130;48.740;9.132;2022-07-29T05:27:15;1.60;;;1.50;;
8177;SDS011;4130;48.740;9.132;2022-07-29T05:29:42;1.70;;;1.60;;
8177;SDS011;4130;48.740;9.132;2022-07-29T05:32:09;1.95;;;1.85;;
8177;SDS011;4130;48.740;9.132;2022-07-29T05:34:36;2.00;;;1.90;;
8177;SDS011;4130;48.740;9.132;2022-07-29T05:37:04;1.80;;;1.70;;
8177;SDS011;4130;48.740;9.132;2022-07-29T05:39:31;2.08;;;1.88;;
8177;SDS011;4130;48.740;9.132;2022-07-29T05:41:58;2.25;;;2.13;;
8177;SDS011;4130;48.740;9.132;2022-07-29T05:44:24;1.98;;;1.80;;
8177;SDS011;4130;48.740;9.132;2022-07-29T05:46:51;1.98;;;1.77;;
8177;SDS011;4130;48.740;9.132;2022-07-29T05:49:18;1.98;;;1.88;;
8177;SDS011;4130;48.740;9.132;2022-07-29T05:51:45;2.03;;;1.92;;
8177;SDS011;4130;48.740;9.132;2022-07-29T05:54:15;3.45;;;2.22;;
8177;SDS011;4130;48.740;9.132;2022-07-29T05:56:42;3.40;;;2.03;;
8177;SDS011;4130;48.740;9.132;2022-07-29T05:59:08;2.38;;;1.95;;
8177;SDS011;4130;48.740;9.132;2022-07-29T06:01:35;5.03;;;1.92;;
8177;SDS011;4130;48.740;9.132;2022-07-29T06:04:04;2.10;;;2.00;;
8177;SDS011;4130;48.740;9.132;2022-07-29T06:06:31;2.65;;;2.13;;
8177;SDS011;4130;48.740;9.132;2022-07-29T06:08:58;3.42;;;2.20;;
8177;SDS011;4130;48.740;9.132;2022-07-29T06:11:26;2.35;;;2.15;;
8177;SDS011;4130;48.740;9.132;2022-07-29T06:13:53;2.33;;;2.00;;
8177;SDS011;4130;48.740;9.132;2022-07-29T06:16:20;5.65;;;2.22;;
8177;SDS011;4130;48.740;9.132;2022-07-29T06:18:47;2.22;;;2.13;;
8177;SDS011;4130;48.740;9.132;2022-07-29T06:21:13;2.30;;;2.20;;
8177;SDS011;4130;48.740;9.132;2022-07-29T06:23:40;2.15;;;2.05;;
8177;SDS011;4130;48.740;9.132;2022-07-29T06:26:07;2.28;;;1.95;;
8177;SDS011;4130;48.740;9.132;2022-07-29T06:28:35;2.08;;;1.95;;
8177;SDS011;4130;48.740;9.132;2022-07-29T06:31:02;2.30;;;2.10;;
8177;SDS011;4130;48.740;9.132;2022-07-29T06:33:29;2.60;;;2.40;;
8177;SDS011;4130;48.740;9.132;2022-07-29T06:35:56;2.47;;;2.28;;
8177;SDS011;4130;48.740;9.132;2022-07-29T06:38:23;4.88;;;2.45;;
8177;SDS011;4130;48.740;9.132;2022-07-29T06:40:56;2.40;;;2.20;;
8177;SDS011;4130;48.740;9.132;2022-07-29T06:43:26;3.42;;;2.25;;
8177;SDS011;4130;48.740;9.132;2022-07-29T06:45:59;2.78;;;2.17;;
8177;SDS011;4130;48.740;9.132;2022-07-29T06:48:27;3.42;;;2.40;;
8177;SDS011;4130;48.740;9.132;2022-07-29T06:50:54;2.38;;;2.17;;
8177;SDS011;4130;48.740;9.132;2022-07-29T06:53:21;2.63;;;2.42;;
8177;SDS011;4130;48.740;9.132;2022-07-29T06:55:48;3.85;;;2.40;;
8177;SDS011;4130;48.740;9.132;2022-07-29T06:58:15;2.67;;;2.00;;
8177;SDS011;4130;48.740;9.132;2022-07-29T07:00:45;3.67;;;3.08;;
8177;SDS011;4130;48.740;9.132;2022-07-29T07:03:13;3.75;;;2.60;;
8177;SDS011;4130;48.740;9.132;2022-07-29T07:05:40;3.35;;;3.00;;
8177;SDS011;4130;48.740;9.132;2022-07-29T07:08:07;2.40;;;2.20;;
8177;SDS011;4130;48.740;9.132;2022-07-29T07:10:34;2.72;;;2.53;;
8177;SDS011;4130;48.740;9.132;2022-07-29T07:13:01;4.38;;;2.30;;
8177;SDS011;4130;48.740;9.132;2022-07-29T07:15:27;2.33;;;2.13;;
8177;SDS011;4130;48.740;9.132;2022-07-29T07:17:54;2.53;;;2.20;;
8177;SDS011;4130;48.740;9.132;2022-07-29T07:20:23;3.05;;;2.30;;
8177;SDS011;4130;48.740;9.132;2022-07-29T07:22:50;2.58;;;2.38;;
8177;SDS011;4130;48.740;9.132;2022-07-29T07:25:17;5.30;;;2.53;;
8177;SDS011;4130;48.740;9.132;2022-07-29T07:27:44;3.70;;;2.63;;
8177;SDS011;4130;48.740;9.132;2022-07-29T07:30:12;2.50;;;2.25;;
8177;SDS011;4130;48.740;9.132;2022-07-29T07:32:39;2.38;;;2.22;;
8177;SDS011;4130;48.740;9.132;2022-07-29T07:35:07;4.40;;;2.40;;
8177;SDS011;4130;48.740;9.132;2022-07-29T07:37:36;3.33;;;2.72;;
8177;SDS011;4130;48.740;9.132;2022-07-29T07:40:05;2.58;;;2.38;;
8177;SDS011;4130;48.740;9.132;2022-07-29T07:42:34;3.03;;;2.20;;
8177;SDS011;4130;48.740;9.132;2022-07-29T07:45:01;2.92;;;2.55;;
8177;SDS011;4130;48.740;9.132;2022-07-29T07:47:27;3.55;;;2.60;;
8177;SDS011;4130;48.740;9.132;2022-07-29T07:49:54;2.70;;;2.50;;
8177;SDS011;4130;48.740;9.132;2022-07-29T07:52:21;3.65;;;2.30;;
8177;SDS011;4130;48.740;9.132;2022-07-29T07:54:51;2.75;;;2.55;;
8177;SDS011;4130;48.740;9.132;2022-07-29T07:57:18;2.53;;;2.30;;
8177;SDS011;4130;48.740;9.132;2022-07-29T07:59:44;2.60;;;2.40;;
8177;SDS011;4130;48.740;9.132;2022-07-29T08:02:11;3.58;;;2.40;;
8177;SDS011;4130;48.740;9.132;2022-07-29T08:04:38;2.97;;;2.70;;
8177;SDS011;4130;48.740;9.132;2022-07-29T08:07:05;2.97;;;2.40;;
8177;SDS011;4130;48.740;9.132;2022-07-29T08:09:33;2.50;;;2.13;;
8177;SDS011;4130;48.740;9.132;2022-07-29T08:12:02;4.35;;;2.50;;
8177;SDS011;4130;48.740;9.132;2022-07-29T08:14:31;2.45;;;2.30;;
8177;SDS011;4130;48.740;9.132;2022-07-29T08:16:58;5.10;;;2.45;;
8177;SDS011;4130;48.740;9.132;2022-07-29T08:19:25;4.38;;;2.35;;
8177;SDS011;4130;48.740;9.132;2022-07-29T08:21:52;5.05;;;2.50;;
8177;SDS011;4130;48.740;9.132;2022-07-29T08:24:20;2.47;;;2.30;;
8177;SDS011;4130;48.740;9.132;2022-07-29T08:27:06;3.60;;;2.30;;
8177;SDS011;4130;48.740;9.132;2022-07-29T08:29:33;2.88;;;2.50;;
8177;SDS011;4130;48.740;9.132;2022-07-29T08:32:00;2.95;;;2.50;;
8177;SDS011;4130;48.740;9.132;2022-07-29T08:34:27;4.32;;;2.47;;
8177;SDS011;4130;48.740;9.132;2022-07-29T08:36:54;4.32;;;2.67;;
8177;SDS011;4130;48.740;9.132;2022-07-29T08:39:21;2.53;;;2.30;;
8177;SDS011;4130;48.740;9.132;2022-07-29T08:41:48;2.60;;;2.40;;
8177;SDS011;4130;48.740;9.132;2022-07-29T08:44:17;3.65;;;2.30;;
8177;SDS011;4130;48.740;9.132;2022-07-29T08:46:46;2.55;;;2.35;;
8177;SDS011;4130;48.740;9.132;2022-07-29T08:49:13;3.65;;;2.70;;
8177;SDS011;4130;48.740;9.132;2022-07-29T08:51:40;8.27;;;2.85;;
8177;SDS011;4130;48.740;9.132;2022-07-29T08:54:09;3.00;;;2.50;;
8177;SDS011;4130;48.740;9.132;2022-07-29T08:56:36;4.80;;;2.50;;
8177;SDS011;4130;48.740;9.132;2022-07-29T08:59:06;4.78;;;2.72;;
8177;SDS011;4130;48.740;9.132;2022-07-29T09:01:37;2.72;;;2.47;;
8177;SDS011;4130;48.740;9.132;2022-07-29T09:04:05;4.25;;;2.30;;
8177;SDS011;4130;48.740;9.132;2022-07-29T09:06:39;2.55;;;2.35;;
8177;SDS011;4130;48.740;9.132;2022-07-29T09:09:09;2.30;;;2.10;;
8177;SDS011;4130;48.740;9.132;2022-07-29T09:11:36;4.45;;;2.50;;
8177;SDS011;4130;48.740;9.132;2022-07-29T09:14:03;5.13;;;2.80;;
8177;SDS011;4130;48.740;9.132;2022-07-29T09:16:52;2.83;;;2.63;;
8177;SDS011;4130;48.740;9.132;2022-07-29T09:19:25;3.35;;;2.78;;
8177;SDS011;4130;48.740;9.132;2022-07-29T09:21:53;3.25;;;2.67;;
8177;SDS011;4130;48.740;9.132;2022-07-29T09:24:23;3.65;;;2.83;;
8177;SDS011;4130;48.740;9.132;2022-07-29T09:26:50;5.53;;;3.03;;
8177;SDS011;4130;48.740;9.132;2022-07-29T09:29:18;3.00;;;2.60;;
8177;SDS011;4130;48.740;9.132;2022-07-29T09:31:46;4.82;;;2.70;;
8177;SDS011;4130;48.740;9.132;2022-07-29T09:34:16;3.17;;;2.85;;
8177;SDS011;4130;48.740;9.132;2022-07-29T09:36:47;4.75;;;2.55;;
8177;SDS011;4130;48.740;9.132;2022-07-29T09:39:15;3.30;;;2.83;;
8177;SDS011;4130;48.740;9.132;2022-07-29T09:41:54;3.10;;;2.80;;
8177;SDS011;4130;48.740;9.132;2022-07-29T09:44:23;7.07;;;2.40;;
8177;SDS011;4130;48.740;9.132;2022-07-29T09:46:57;6.18;;;2.53;;
8177;SDS011;4130;48.740;9.132;2022-07-29T09:49:32;3.17;;;2.33;;
8177;SDS011;4130;48.740;9.132;2022-07-29T09:52:00;2.70;;;2.50;;
8177;SDS011;4130;48.740;9.132;2022-07-29T09:54:30;2.60;;;2.40;;
8177;SDS011;4130;48.740;9.132;2022-07-29T09:57:02;2.65;;;2.45;;
8177;SDS011;4130;48.740;9.132;2022-07-29T09:59:30;6.15;;;2.67;;
8177;SDS011;4130;48.740;9.132;2022-07-29T10:01:57;3.10;;;2.40;;
8177;SDS011;4130;48.740;9.132;2022-07-29T10:04:28;2.80;;;2.40;;
8177;SDS011;4130;48.740;9.132;2022-07-29T10:07:04;2.67;;;2.47;;
8177;SDS011;4130;48.740;9.132;2022-07-29T10:09:32;4.10;;;2.47;;
8177;SDS011;4130;48.740;9.132;2022-07-29T10:12:06;2.90;;;2.70;;
8177;SDS011;4130;48.740;9.132;2022-07-29T10:14:36;4.88;;;2.80;;
8177;SDS011;4130;48.740;9.132;2022-07-29T10:17:04;3.75;;;3.00;;
8177;SDS011;4130;48.740;9.132;2022-07-29T10:19:32;3.90;;;3.05;;
8177;SDS011;4130;48.740;9.132;2022-07-29T10:22:02;6.43;;;3.10;;
8177;SDS011;4130;48.740;9.132;2022-07-29T10:24:30;3.72;;;2.88;;
8177;SDS011;4130;48.740;9.132;2022-07-29T10:26:59;5.57;;;3.00;;
8177;SDS011;4130;48.740;9.132;2022-07-29T10:29:26;3.40;;;3.20;;
8177;SDS011;4130;48.740;9.132;2022-07-29T10:31:59;3.30;;;3.00;;
8177;SDS011;4130;48.740;9.132;2022-07-29T10:34:46;3.67;;;2.83;;
8177;SDS011;4130;48.740;9.132;2022-07-29T10:37:26;5.65;;;3.15;;
8177;SDS011;4130;48.740;9.132;2022-07-29T10:40:00;4.18;;;3.40;;
8177;SDS011;4130;48.740;9.132;2022-07-29T10:42:49;4.72;;;3.50;;
8177;SDS011;4130;48.740;9.132;2022-07-29T10:45:18;4.55;;;3.42;;
8177;SDS011;4130;48.740;9.132;2022-07-29T10:47:45;4.22;;;3.75;;
8177;SDS011;4130;48.740;9.132;2022-07-29T10:50:12;6.30;;;3.85;;
8177;SDS011;4130;48.740;9.132;2022-07-29T10:52:53;4.30;;;3.78;;
8177;SDS011;4130;48.740;9.132;2022-07-29T10:55:31;6.03;;;3.97;;
8177;SDS011;4130;48.740;9.132;2022-07-29T10:58:13;7.97;;;4.32;;
8177;SDS011;4130;48.740;9.132;2022-07-29T11:00:40;8.95;;;4.40;;
8177;SDS011;4130;48.740;9.132;2022-07-29T11:03:07;7.97;;;5.28;;
8177;SDS011;4130;48.740;9.132;2022-07-29T11:05:54;7.72;;;4.55;;
8177;SDS011;4130;48.740;9.132;2022-07-29T11:08:25;9.73;;;4.45;;
8177;SDS011;4130;48.740;9.132;2022-07-29T11:10:53;10.10;;;5.43;;
8177;SDS011;4130;48.740;9.132;2022-07-29T11:13:47;5.85;;;4.45;;
8177;SDS011;4130;48.740;9.132;2022-07-29T11:16:16;4.97;;;3.40;;
8177;SDS011;4130;48.740;9.132;2022-07-29T11:21:48;4.50;;;3.38;;
8177;SDS011;4130;48.740;9.132;2022-07-29T11:24:19;3.88;;;3.30;;
8177;SDS011;4130;48.740;9.132;2022-07-29T11:29:38;4.60;;;3.50;;
8177;SDS011;4130;48.740;9.132;2022-07-29T11:32:14;10.05;;;4.40;;
8177;SDS011;4130;48.740;9.132;2022-07-29T11:34:44;4.50;;;3.97;;
8177;SDS011;4130;48.740;9.132;2022-07-29T11:37:17;5.00;;;4.22;;
8177;SDS011;4130;48.740;9.132;2022-07-29T11:40:07;4.50;;;4.10;;
8177;SDS011;4130;48.740;9.132;2022-07-29T11:42:52;4.32;;;3.47;;
8177;SDS011;4130;48.740;9.132;2022-07-29T11:45:21;4.30;;;3.90;;
8177;SDS011;4130;48.740;9.132;2022-07-29T11:47:54;5.25;;;4.63;;
8177;SDS011;4130;48.740;9.132;2022-07-29T11:50:27;4.50;;;4.07;;
8177;SDS011;4130;48.740;9.132;2022-07-29T11:53:01;6.00;;;4.40;;
8177;SDS011;4130;48.740;9.132;2022-07-29T11:55:30;5.55;;;4.18;;
8177;SDS011;4130;48.740;9.132;2022-07-29T11:58:00;4.65;;;4.25;;
8177;SDS011;4130;48.740;9.132;2022-07-29T12:00:29;4.82;;;4.32;;
8177;SDS011;4130;48.740;9.132;2022-07-29T12:02:59;4.95;;;3.97;;
8177;SDS011;4130;48.740;9.132;2022-07-29T12:05:30;5.07;;;4.32;;
8177;SDS011;4130;48.740;9.132;2022-07-29T12:08:11;4.88;;;4.40;;
8177;SDS011;4130;48.740;9.132;2022-07-29T12:10:42;4.28;;;3.85;;
8177;SDS011;4130;48.740;9.132;2022-07-29T12:13:10;3.90;;;3.60;;
8177;SDS011;4130;48.740;9.132;2022-07-29T12:15:38;5.65;;;4.70;;
8177;SDS011;4130;48.740;9.132;2022-07-29T12:18:12;6.03;;;4.60;;
8177;SDS011;4130;48.740;9.132;2022-07-29T12:20:40;5.38;;;3.83;;
8177;SDS011;4130;48.740;9.132;2022-07-29T12:23:07;4.28;;;3.50;;
8177;SDS011;4130;48.740;9.132;2022-07-29T12:25:36;4.95;;;3.78;;
8177;SDS011;4130;48.740;9.132;2022-07-29T12:28:05;4.60;;;4.07;;
8177;SDS011;4130;48.740;9.132;2022-07-29T12:30:37;5.63;;;4.00;;
8177;SDS011;4130;48.740;9.132;2022-07-29T12:33:11;5.78;;;4.38;;
8177;SDS011;4130;48.740;9.132;2022-07-29T12:35:39;5.40;;;4.10;;
8177;SDS011;4130;48.740;9.132;2022-07-29T12:38:08;4.85;;;3.90;;
8177;SDS011;4130;48.740;9.132;2022-07-29T12:40:36;3.63;;;3.42;;
8177;SDS011;4130;48.740;9.132;2022-07-29T12:43:08;4.78;;;4.38;;
8177;SDS011;4130;48.740;9.132;2022-07-29T12:45:36;5.35;;;3.85;;
8177;SDS011;4130;48.740;9.132;2022-07-29T12:48:03;4.57;;;4.07;;
8177;SDS011;4130;48.740;9.132;2022-07-29T12:50:33;4.72;;;3.90;;
8177;SDS011;4130;48.740;9.132;2022-07-29T12:53:10;6.15;;;4.22;;
8177;SDS011;4130;48.740;9.132;2022-07-29T12:55:39;5.90;;;4.22;;
8177;SDS011;4130;48.740;9.132;2022-07-29T12:58:24;5.63;;;4.38;;
8177;SDS011;4130;48.740;9.132;2022-07-29T13:01:02;3.97;;;3.67;;
8177;SDS011;4130;48.740;9.132;2022-07-29T13:03:46;4.45;;;3.92;;
8177;SDS011;4130;48.740;9.132;2022-07-29T13:06:31;6.65;;;4.32;;
8177;SDS011;4130;48.740;9.132;2022-07-29T13:09:01;6.72;;;4.70;;
8177;SDS011;4130;48.740;9.132;2022-07-29T13:11:39;4.10;;;3.47;;
8177;SDS011;4130;48.740;9.132;2022-07-29T13:14:08;6.32;;;3.85;;
8177;SDS011;4130;48.740;9.132;2022-07-29T13:16:36;5.07;;;3.33;;
8177;SDS011;4130;48.740;9.132;2022-07-29T13:19:32;3.75;;;3.42;;
8177;SDS011;4130;48.740;9.132;2022-07-29T13:22:00;3.40;;;3.10;;
8177;SDS011;4130;48.740;9.132;2022-07-29T13:24:26;3.10;;;2.90;;
8177;SDS011;4130;48.740;9.132;2022-07-29T13:26:53;4.43;;;3.38;;
8177;SDS011;4130;48.740;9.132;2022-07-29T13:29:23;3.42;;;3.13;;
8177;SDS011;4130;48.740;9.132;2022-07-29T13:31:51;3.85;;;3.40;;
8177;SDS011;4130;48.740;9.132;2022-07-29T13:34:19;3.30;;;3.00;;
8177;SDS011;4130;48.740;9.132;2022-07-29T13:36:49;4.90;;;3.22;;
8177;SDS011;4130;48.740;9.132;2022-07-29T13:39:16;4.13;;;3.17;;
8177;SDS011;4130;48.740;9.132;2022-07-29T13:41:42;3.80;;;3.50;;
8177;SDS011;4130;48.740;9.132;2022-07-29T13:44:09;3.78;;;3.40;;
8177;SDS011;4130;48.740;9.132;2022-07-29T13:46:37;5.85;;;3.50;;
8177;SDS011;4130;48.740;9.132;2022-07-29T13:49:04;4.45;;;3.50;;
8177;SDS011;4130;48.740;9.132;2022-07-29T13:51:31;3.10;;;2.90;;
8177;SDS011;4130;48.740;9.132;2022-07-29T13:53:58;3.25;;;2.90;;
8177;SDS011;4130;48.740;9.132;2022-07-29T13:56:25;3.63;;;3.30;;
8177;SDS011;4130;48.740;9.132;2022-07-29T13:58:52;3.90;;;3.47;;
8177;SDS011;4130;48.740;9.132;2022-07-29T14:01:18;3.67;;;3.38;;
8177;SDS011;4130;48.740;9.132;2022-07-29T14:03:46;3.83;;;3.53;;
8177;SDS011;4130;48.740;9.132;2022-07-29T14:06:13;4.28;;;3.88;;
8177;SDS011;4130;48.740;9.132;2022-07-29T14:08:40;5.38;;;4.10;;
8177;SDS011;4130;48.740;9.132;2022-07-29T14:11:07;5.28;;;4.13;;
8177;SDS011;4130;48.740;9.132;2022-07-29T14:13:34;4.55;;;4.15;;
8177;SDS011;4130;48.740;9.132;2022-07-29T14:16:01;6.18;;;4.88;;
8177;SDS011;4130;48.740;9.132;2022-07-29T14:18:28;5.47;;;4.97;;
8177;SDS011;4130;48.740;9.132;2022-07-29T14:20:56;7.78;;;4.40;;
8177;SDS011;4130;48.740;9.132;2022-07-29T14:23:23;6.20;;;4.68;;
8177;SDS011;4130;48.740;9.132;2022-07-29T14:25:49;6.72;;;4.43;;
8177;SDS011;4130;48.740;9.132;2022-07-29T14:28:16;6.47;;;4.60;;
8177;SDS011;4130;48.740;9.132;2022-07-29T14:30:43;7.00;;;4.25;;
8177;SDS011;4130;48.740;9.132;2022-07-29T14:33:10;4.78;;;4.20;;
8177;SDS011;4130;48.740;9.132;2022-07-29T14:35:37;4.90;;;4.32;;
8177;SDS011;4130;48.740;9.132;2022-07-29T14:38:05;6.05;;;4.70;;
8177;SDS011;4130;48.740;9.132;2022-07-29T14:40:32;4.78;;;4.22;;
8177;SDS011;4130;48.740;9.132;2022-07-29T14:42:59;5.88;;;4.63;;
8177;SDS011;4130;48.740;9.132;2022-07-29T14:45:26;6.72;;;4.57;;
8177;SDS011;4130;48.740;9.132;2022-07-29T14:47:53;7.60;;;4.03;;
8177;SDS011;4130;48.740;9.132;2022-07-29T14:50:20;4.95;;;4.20;;
8177;SDS011;4130;48.740;9.132;2022-07-29T14:52:47;4.60;;;4.20;;
8177;SDS011;4130;48.740;9.132;2022-07-29T14:55:15;9.55;;;4.38;;
8177;SDS011;4130;48.740;9.132;2022-07-29T14:57:42;5.75;;;4.38;;
8177;SDS011;4130;48.740;9.132;2022-07-29T15:00:09;7.57;;;4.45;;
8177;SDS011;4130;48.740;9.132;2022-07-29T15:02:37;5.03;;;4.38;;
8177;SDS011;4130;48.740;9.132;2022-07-29T15:05:04;9.40;;;4.50;;
8177;SDS011;4130;48.740;9.132;2022-07-29T15:07:31;4.82;;;3.85;;
8177;SDS011;4130;48.740;9.132;2022-07-29T15:09:58;4.75;;;4.10;;
8177;SDS011;4130;48.740;9.132;2022-07-29T15:12:26;4.18;;;3.78;;
8177;SDS011;4130;48.740;9.132;2022-07-29T15:14:53;5.10;;;4.70;;
8177;SDS011;4130;48.740;9.132;2022-07-29T15:17:20;4.32;;;3.92;;
8177;SDS011;4130;48.740;9.132;2022-07-29T15:19:46;4.10;;;3.80;;
8177;SDS011;4130;48.740;9.132;2022-07-29T15:22:13;6.63;;;4.30;;
8177;SDS011;4130;48.740;9.132;2022-07-29T15:24:40;4.95;;;4.50;;
8177;SDS011;4130;48.740;9.132;2022-07-29T15:27:07;4.35;;;4.05;;
8177;SDS011;4130;48.740;9.132;2022-07-29T15:29:40;4.72;;;4.30;;
8177;SDS011;4130;48.740;9.132;2022-07-29T15:32:07;6.18;;;4.22;;
8177;SDS011;4130;48.740;9.132;2022-07-29T15:34:34;4.30;;;3.90;;
8177;SDS011;4130;48.740;9.132;2022-07-29T15:37:01;4.28;;;3.92;;
8177;SDS011;4130;48.740;9.132;2022-07-29T15:39:28;5.55;;;3.90;;